< < Back
Terminal Aerodrome Forecast


Current Version              Previous Versions:   1  2  3  4  5  6  7  8  9  

Terminal Aerodrome Forecast

888
FTAK31 PAJN 271700
TAFAGS
TAF
PAGS 271738Z 2718/2818 35010G20KT P6SM SKC
     FM280200 36006KT P6SM SKC
     FM280700 VRB04KT P6SM SKC
      AMD NOT SKED=

Latest METAR

124
SAUS70 KWBC 280000 RRC
MTRAGS
METAR KAGS 272353Z 30010G18KT 10SM CLR 08/M02 A3027 RMK AO2 SLP250
T00781022 10122 20078 53025


USA.gov is the U.S. government's official web portal to all federal, state and local government web resources and services.